sensor_id;sensor_type;location;lat;lon;timestamp;P1;durP1;ratioP1;P2;durP2;ratioP2
70303;SDS011;57712;48.752;11.348;2023-07-20T00:01:54;6.72;;;3.03;;
70303;SDS011;57712;48.752;11.348;2023-07-20T00:04:35;6.40;;;2.40;;
70303;SDS011;57712;48.752;11.348;2023-07-20T00:07:03;6.28;;;2.65;;
70303;SDS011;57712;48.752;11.348;2023-07-20T00:09:30;6.57;;;2.60;;
70303;SDS011;57712;48.752;11.348;2023-07-20T00:11:57;6.28;;;2.35;;
70303;SDS011;57712;48.752;11.348;2023-07-20T00:14:24;7.38;;;2.80;;
70303;SDS011;57712;48.752;11.348;2023-07-20T00:16:51;5.90;;;2.47;;
70303;SDS011;57712;48.752;11.348;2023-07-20T00:19:23;5.75;;;2.25;;
70303;SDS011;57712;48.752;11.348;2023-07-20T00:21:51;5.90;;;2.50;;
70303;SDS011;57712;48.752;11.348;2023-07-20T00:24:18;5.38;;;2.15;;
70303;SDS011;57712;48.752;11.348;2023-07-20T00:26:45;8.10;;;2.58;;
70303;SDS011;57712;48.752;11.348;2023-07-20T00:29:12;5.78;;;2.65;;
70303;SDS011;57712;48.752;11.348;2023-07-20T00:31:39;6.65;;;2.95;;
70303;SDS011;57712;48.752;11.348;2023-07-20T00:34:05;7.70;;;3.30;;
70303;SDS011;57712;48.752;11.348;2023-07-20T00:36:32;7.85;;;2.65;;
70303;SDS011;57712;48.752;11.348;2023-07-20T00:38:59;6.60;;;2.45;;
70303;SDS011;57712;48.752;11.348;2023-07-20T00:41:29;6.22;;;2.47;;
70303;SDS011;57712;48.752;11.348;2023-07-20T00:43:56;6.85;;;2.60;;
70303;SDS011;57712;48.752;11.348;2023-07-20T00:46:22;6.80;;;2.43;;
70303;SDS011;57712;48.752;11.348;2023-07-20T00:48:51;6.32;;;2.70;;
70303;SDS011;57712;48.752;11.348;2023-07-20T00:51:20;8.07;;;3.30;;
70303;SDS011;57712;48.752;11.348;2023-07-20T00:53:48;6.13;;;2.85;;
70303;SDS011;57712;48.752;11.348;2023-07-20T00:56:15;8.52;;;2.70;;
70303;SDS011;57712;48.752;11.348;2023-07-20T00:58:42;5.57;;;2.60;;
70303;SDS011;57712;48.752;11.348;2023-07-20T01:01:11;8.15;;;2.78;;
70303;SDS011;57712;48.752;11.348;2023-07-20T01:03:38;9.60;;;3.35;;
70303;SDS011;57712;48.752;11.348;2023-07-20T01:09:16;6.68;;;3.33;;
70303;SDS011;57712;48.752;11.348;2023-07-20T01:12:22;8.90;;;3.50;;
70303;SDS011;57712;48.752;11.348;2023-07-20T01:14:43;6.43;;;2.50;;
70303;SDS011;57712;48.752;11.348;2023-07-20T01:17:09;8.98;;;3.20;;
70303;SDS011;57712;48.752;11.348;2023-07-20T01:19:36;7.18;;;3.10;;
70303;SDS011;57712;48.752;11.348;2023-07-20T01:22:10;7.10;;;3.05;;
70303;SDS011;57712;48.752;11.348;2023-07-20T01:27:35;7.20;;;3.15;;
70303;SDS011;57712;48.752;11.348;2023-07-20T01:30:22;6.03;;;2.80;;
70303;SDS011;57712;48.752;11.348;2023-07-20T01:33:01;8.13;;;3.05;;
70303;SDS011;57712;48.752;11.348;2023-07-20T01:35:29;6.95;;;2.95;;
70303;SDS011;57712;48.752;11.348;2023-07-20T01:37:59;6.23;;;2.57;;
70303;SDS011;57712;48.752;11.348;2023-07-20T01:40:30;9.20;;;2.90;;
70303;SDS011;57712;48.752;11.348;2023-07-20T01:42:57;8.63;;;3.00;;
70303;SDS011;57712;48.752;11.348;2023-07-20T01:45:24;6.78;;;3.20;;
70303;SDS011;57712;48.752;11.348;2023-07-20T01:47:51;6.78;;;3.03;;
70303;SDS011;57712;48.752;11.348;2023-07-20T01:50:17;7.83;;;2.70;;
70303;SDS011;57712;48.752;11.348;2023-07-20T01:52:44;6.72;;;2.80;;
70303;SDS011;57712;48.752;11.348;2023-07-20T01:55:11;10.30;;;3.30;;
70303;SDS011;57712;48.752;11.348;2023-07-20T01:57:37;8.18;;;2.92;;
70303;SDS011;57712;48.752;11.348;2023-07-20T02:00:04;8.55;;;3.03;;
70303;SDS011;57712;48.752;11.348;2023-07-20T02:02:31;6.07;;;2.70;;
70303;SDS011;57712;48.752;11.348;2023-07-20T02:04:58;7.60;;;3.30;;
70303;SDS011;57712;48.752;11.348;2023-07-20T02:07:26;6.97;;;3.00;;
70303;SDS011;57712;48.752;11.348;2023-07-20T02:09:53;6.03;;;2.35;;
70303;SDS011;57712;48.752;11.348;2023-07-20T02:12:20;6.55;;;2.85;;
70303;SDS011;57712;48.752;11.348;2023-07-20T02:14:47;6.73;;;2.80;;
70303;SDS011;57712;48.752;11.348;2023-07-20T02:17:14;8.23;;;2.72;;
70303;SDS011;57712;48.752;11.348;2023-07-20T02:19:41;7.28;;;2.20;;
70303;SDS011;57712;48.752;11.348;2023-07-20T02:22:07;5.85;;;2.40;;
70303;SDS011;57712;48.752;11.348;2023-07-20T02:24:35;5.60;;;2.38;;
70303;SDS011;57712;48.752;11.348;2023-07-20T02:27:01;7.80;;;2.50;;
70303;SDS011;57712;48.752;11.348;2023-07-20T02:29:28;8.13;;;2.30;;
70303;SDS011;57712;48.752;11.348;2023-07-20T02:31:55;7.22;;;2.22;;
70303;SDS011;57712;48.752;11.348;2023-07-20T02:34:21;5.38;;;2.05;;
70303;SDS011;57712;48.752;11.348;2023-07-20T02:36:48;4.97;;;2.20;;
70303;SDS011;57712;48.752;11.348;2023-07-20T02:39:15;6.17;;;2.03;;
70303;SDS011;57712;48.752;11.348;2023-07-20T02:41:42;5.32;;;1.70;;
70303;SDS011;57712;48.752;11.348;2023-07-20T02:44:08;7.47;;;1.95;;
70303;SDS011;57712;48.752;11.348;2023-07-20T02:46:35;5.82;;;1.88;;
70303;SDS011;57712;48.752;11.348;2023-07-20T02:49:02;7.53;;;2.35;;
70303;SDS011;57712;48.752;11.348;2023-07-20T02:51:28;4.80;;;1.83;;
70303;SDS011;57712;48.752;11.348;2023-07-20T02:53:55;7.97;;;1.95;;
70303;SDS011;57712;48.752;11.348;2023-07-20T02:56:22;5.20;;;1.83;;
70303;SDS011;57712;48.752;11.348;2023-07-20T02:58:49;4.47;;;1.40;;
70303;SDS011;57712;48.752;11.348;2023-07-20T03:01:16;5.93;;;1.60;;
70303;SDS011;57712;48.752;11.348;2023-07-20T03:03:43;4.43;;;1.53;;
70303;SDS011;57712;48.752;11.348;2023-07-20T03:06:13;5.55;;;1.42;;
70303;SDS011;57712;48.752;11.348;2023-07-20T03:08:45;4.97;;;1.40;;
70303;SDS011;57712;48.752;11.348;2023-07-20T03:11:14;5.95;;;1.70;;
70303;SDS011;57712;48.752;11.348;2023-07-20T03:13:44;6.05;;;2.15;;
70303;SDS011;57712;48.752;11.348;2023-07-20T03:16:11;5.17;;;2.00;;
70303;SDS011;57712;48.752;11.348;2023-07-20T03:18:41;5.75;;;1.85;;
70303;SDS011;57712;48.752;11.348;2023-07-20T03:21:09;9.30;;;2.00;;
70303;SDS011;57712;48.752;11.348;2023-07-20T03:23:40;4.97;;;1.40;;
70303;SDS011;57712;48.752;11.348;2023-07-20T03:26:07;5.72;;;1.70;;
70303;SDS011;57712;48.752;11.348;2023-07-20T03:28:35;5.60;;;1.53;;
70303;SDS011;57712;48.752;11.348;2023-07-20T03:31:02;6.40;;;1.80;;
70303;SDS011;57712;48.752;11.348;2023-07-20T03:33:31;6.32;;;1.75;;
70303;SDS011;57712;48.752;11.348;2023-07-20T03:35:58;6.63;;;1.70;;
70303;SDS011;57712;48.752;11.348;2023-07-20T03:38:26;5.50;;;1.95;;
70303;SDS011;57712;48.752;11.348;2023-07-20T03:40:54;5.53;;;1.83;;
70303;SDS011;57712;48.752;11.348;2023-07-20T03:43:23;4.90;;;1.92;;
70303;SDS011;57712;48.752;11.348;2023-07-20T03:45:51;4.97;;;1.92;;
70303;SDS011;57712;48.752;11.348;2023-07-20T03:48:19;6.00;;;1.55;;
70303;SDS011;57712;48.752;11.348;2023-07-20T03:50:48;6.00;;;1.92;;
70303;SDS011;57712;48.752;11.348;2023-07-20T03:53:16;5.10;;;1.70;;
70303;SDS011;57712;48.752;11.348;2023-07-20T03:58:13;5.38;;;1.80;;
70303;SDS011;57712;48.752;11.348;2023-07-20T04:00:44;5.57;;;1.52;;
70303;SDS011;57712;48.752;11.348;2023-07-20T04:03:12;5.53;;;2.15;;
70303;SDS011;57712;48.752;11.348;2023-07-20T04:05:39;4.43;;;1.50;;
70303;SDS011;57712;48.752;11.348;2023-07-20T04:08:06;6.30;;;2.05;;
70303;SDS011;57712;48.752;11.348;2023-07-20T04:10:33;6.45;;;1.98;;
70303;SDS011;57712;48.752;11.348;2023-07-20T04:13:00;5.63;;;1.55;;
70303;SDS011;57712;48.752;11.348;2023-07-20T04:15:27;7.20;;;1.90;;
70303;SDS011;57712;48.752;11.348;2023-07-20T04:17:54;5.63;;;1.37;;
70303;SDS011;57712;48.752;11.348;2023-07-20T04:20:23;6.97;;;2.53;;
70303;SDS011;57712;48.752;11.348;2023-07-20T04:22:50;6.68;;;2.35;;
70303;SDS011;57712;48.752;11.348;2023-07-20T04:25:19;6.47;;;2.40;;
70303;SDS011;57712;48.752;11.348;2023-07-20T04:27:46;8.45;;;2.72;;
70303;SDS011;57712;48.752;11.348;2023-07-20T04:30:13;6.83;;;1.90;;
70303;SDS011;57712;48.752;11.348;2023-07-20T04:32:41;5.63;;;1.65;;
70303;SDS011;57712;48.752;11.348;2023-07-20T04:35:16;6.00;;;1.95;;
70303;SDS011;57712;48.752;11.348;2023-07-20T04:37:45;6.18;;;2.03;;
70303;SDS011;57712;48.752;11.348;2023-07-20T04:40:15;5.55;;;1.80;;
70303;SDS011;57712;48.752;11.348;2023-07-20T04:42:42;5.00;;;1.97;;
70303;SDS011;57712;48.752;11.348;2023-07-20T04:45:08;5.10;;;1.55;;
70303;SDS011;57712;48.752;11.348;2023-07-20T04:47:35;5.05;;;1.60;;
70303;SDS011;57712;48.752;11.348;2023-07-20T04:50:02;5.95;;;1.60;;
70303;SDS011;57712;48.752;11.348;2023-07-20T04:52:29;6.20;;;1.70;;
70303;SDS011;57712;48.752;11.348;2023-07-20T04:55:08;4.70;;;1.70;;
70303;SDS011;57712;48.752;11.348;2023-07-20T04:57:35;4.88;;;1.73;;
70303;SDS011;57712;48.752;11.348;2023-07-20T05:00:02;5.20;;;1.85;;
70303;SDS011;57712;48.752;11.348;2023-07-20T05:02:29;5.40;;;1.75;;
70303;SDS011;57712;48.752;11.348;2023-07-20T05:04:56;6.43;;;1.95;;
70303;SDS011;57712;48.752;11.348;2023-07-20T05:07:23;6.43;;;2.43;;
70303;SDS011;57712;48.752;11.348;2023-07-20T05:09:50;7.35;;;2.13;;
70303;SDS011;57712;48.752;11.348;2023-07-20T05:12:16;6.15;;;2.45;;
70303;SDS011;57712;48.752;11.348;2023-07-20T05:14:46;6.93;;;2.30;;
70303;SDS011;57712;48.752;11.348;2023-07-20T05:17:12;6.00;;;1.98;;
70303;SDS011;57712;48.752;11.348;2023-07-20T05:19:39;6.20;;;2.00;;
70303;SDS011;57712;48.752;11.348;2023-07-20T05:22:09;4.75;;;1.70;;
70303;SDS011;57712;48.752;11.348;2023-07-20T05:24:37;6.95;;;2.35;;
70303;SDS011;57712;48.752;11.348;2023-07-20T05:27:04;5.70;;;2.08;;
70303;SDS011;57712;48.752;11.348;2023-07-20T05:29:31;5.68;;;2.10;;
70303;SDS011;57712;48.752;11.348;2023-07-20T05:31:59;6.17;;;2.03;;
70303;SDS011;57712;48.752;11.348;2023-07-20T05:34:26;6.03;;;2.00;;
70303;SDS011;57712;48.752;11.348;2023-07-20T05:36:52;7.55;;;2.03;;
70303;SDS011;57712;48.752;11.348;2023-07-20T05:39:19;7.47;;;1.77;;
70303;SDS011;57712;48.752;11.348;2023-07-20T05:41:46;5.75;;;2.03;;
70303;SDS011;57712;48.752;11.348;2023-07-20T05:44:12;6.07;;;1.90;;
70303;SDS011;57712;48.752;11.348;2023-07-20T05:46:39;5.97;;;1.85;;
70303;SDS011;57712;48.752;11.348;2023-07-20T05:49:22;5.63;;;1.92;;
70303;SDS011;57712;48.752;11.348;2023-07-20T05:51:49;5.38;;;1.67;;
70303;SDS011;57712;48.752;11.348;2023-07-20T05:54:15;5.55;;;1.83;;
70303;SDS011;57712;48.752;11.348;2023-07-20T05:56:42;5.50;;;1.90;;
70303;SDS011;57712;48.752;11.348;2023-07-20T05:59:09;7.78;;;1.95;;
70303;SDS011;57712;48.752;11.348;2023-07-20T06:01:36;6.15;;;1.95;;
70303;SDS011;57712;48.752;11.348;2023-07-20T06:04:03;4.60;;;1.95;;
70303;SDS011;57712;48.752;11.348;2023-07-20T06:06:30;5.30;;;1.85;;
70303;SDS011;57712;48.752;11.348;2023-07-20T06:08:57;9.37;;;2.17;;
70303;SDS011;57712;48.752;11.348;2023-07-20T06:11:24;6.72;;;1.83;;
70303;SDS011;57712;48.752;11.348;2023-07-20T06:13:50;6.72;;;1.88;;
70303;SDS011;57712;48.752;11.348;2023-07-20T06:16:17;6.15;;;1.80;;
70303;SDS011;57712;48.752;11.348;2023-07-20T06:18:44;4.78;;;1.92;;
70303;SDS011;57712;48.752;11.348;2023-07-20T06:21:12;8.13;;;1.97;;
70303;SDS011;57712;48.752;11.348;2023-07-20T06:23:38;6.50;;;1.83;;
70303;SDS011;57712;48.752;11.348;2023-07-20T06:26:06;4.68;;;1.50;;
70303;SDS011;57712;48.752;11.348;2023-07-20T06:28:33;5.57;;;2.03;;
70303;SDS011;57712;48.752;11.348;2023-07-20T06:31:01;7.43;;;2.45;;
70303;SDS011;57712;48.752;11.348;2023-07-20T06:33:29;5.73;;;2.13;;
70303;SDS011;57712;48.752;11.348;2023-07-20T06:35:57;7.97;;;2.13;;
70303;SDS011;57712;48.752;11.348;2023-07-20T06:38:24;6.00;;;2.10;;
70303;SDS011;57712;48.752;11.348;2023-07-20T06:40:54;6.35;;;1.63;;
70303;SDS011;57712;48.752;11.348;2023-07-20T06:43:21;5.43;;;2.20;;
70303;SDS011;57712;48.752;11.348;2023-07-20T06:45:51;7.03;;;1.90;;
70303;SDS011;57712;48.752;11.348;2023-07-20T06:48:19;5.97;;;2.20;;
70303;SDS011;57712;48.752;11.348;2023-07-20T06:50:46;5.80;;;2.45;;
70303;SDS011;57712;48.752;11.348;2023-07-20T06:53:12;6.80;;;2.00;;
70303;SDS011;57712;48.752;11.348;2023-07-20T06:55:41;5.97;;;1.90;;
70303;SDS011;57712;48.752;11.348;2023-07-20T06:58:09;4.93;;;1.90;;
70303;SDS011;57712;48.752;11.348;2023-07-20T07:00:36;6.30;;;2.03;;
70303;SDS011;57712;48.752;11.348;2023-07-20T07:03:03;6.70;;;2.05;;
70303;SDS011;57712;48.752;11.348;2023-07-20T07:05:30;5.85;;;2.25;;
70303;SDS011;57712;48.752;11.348;2023-07-20T07:08:00;9.10;;;2.17;;
70303;SDS011;57712;48.752;11.348;2023-07-20T07:10:27;7.43;;;2.13;;
70303;SDS011;57712;48.752;11.348;2023-07-20T07:12:53;5.80;;;2.08;;
70303;SDS011;57712;48.752;11.348;2023-07-20T07:15:20;5.90;;;2.58;;
70303;SDS011;57712;48.752;11.348;2023-07-20T07:17:47;6.85;;;2.00;;
70303;SDS011;57712;48.752;11.348;2023-07-20T07:20:14;6.18;;;2.20;;
70303;SDS011;57712;48.752;11.348;2023-07-20T07:22:44;7.20;;;2.10;;
70303;SDS011;57712;48.752;11.348;2023-07-20T07:25:12;5.82;;;2.40;;
70303;SDS011;57712;48.752;11.348;2023-07-20T07:27:39;5.68;;;2.00;;
70303;SDS011;57712;48.752;11.348;2023-07-20T07:30:05;6.68;;;2.47;;
70303;SDS011;57712;48.752;11.348;2023-07-20T07:32:33;5.85;;;2.40;;
70303;SDS011;57712;48.752;11.348;2023-07-20T07:34:59;6.43;;;2.17;;
70303;SDS011;57712;48.752;11.348;2023-07-20T07:37:27;5.55;;;2.13;;
70303;SDS011;57712;48.752;11.348;2023-07-20T07:39:54;8.15;;;2.55;;
70303;SDS011;57712;48.752;11.348;2023-07-20T07:42:21;6.75;;;2.20;;
70303;SDS011;57712;48.752;11.348;2023-07-20T07:44:50;6.47;;;2.17;;
70303;SDS011;57712;48.752;11.348;2023-07-20T07:47:17;8.43;;;2.70;;
70303;SDS011;57712;48.752;11.348;2023-07-20T07:49:43;8.45;;;2.47;;
70303;SDS011;57712;48.752;11.348;2023-07-20T07:52:12;5.00;;;2.25;;
70303;SDS011;57712;48.752;11.348;2023-07-20T07:54:40;7.93;;;2.20;;
70303;SDS011;57712;48.752;11.348;2023-07-20T07:57:07;7.30;;;2.15;;
70303;SDS011;57712;48.752;11.348;2023-07-20T07:59:34;5.10;;;1.80;;
70303;SDS011;57712;48.752;11.348;2023-07-20T08:02:04;5.93;;;1.98;;
70303;SDS011;57712;48.752;11.348;2023-07-20T08:04:32;5.75;;;2.13;;
70303;SDS011;57712;48.752;11.348;2023-07-20T08:06:59;5.85;;;2.05;;
70303;SDS011;57712;48.752;11.348;2023-07-20T08:09:26;7.15;;;2.60;;
70303;SDS011;57712;48.752;11.348;2023-07-20T08:11:53;6.10;;;2.30;;
70303;SDS011;57712;48.752;11.348;2023-07-20T08:14:20;6.28;;;2.45;;
70303;SDS011;57712;48.752;11.348;2023-07-20T08:16:46;5.05;;;2.00;;
70303;SDS011;57712;48.752;11.348;2023-07-20T08:19:14;6.95;;;2.58;;
70303;SDS011;57712;48.752;11.348;2023-07-20T08:21:41;5.70;;;2.35;;
70303;SDS011;57712;48.752;11.348;2023-07-20T08:24:08;7.27;;;2.90;;
70303;SDS011;57712;48.752;11.348;2023-07-20T08:26:34;4.90;;;2.33;;
70303;SDS011;57712;48.752;11.348;2023-07-20T08:29:01;5.85;;;2.30;;
70303;SDS011;57712;48.752;11.348;2023-07-20T08:31:28;5.85;;;2.10;;
70303;SDS011;57712;48.752;11.348;2023-07-20T08:33:54;7.03;;;2.38;;
70303;SDS011;57712;48.752;11.348;2023-07-20T08:36:23;7.17;;;2.47;;
70303;SDS011;57712;48.752;11.348;2023-07-20T08:38:50;5.22;;;2.05;;
70303;SDS011;57712;48.752;11.348;2023-07-20T08:41:18;6.72;;;2.10;;
70303;SDS011;57712;48.752;11.348;2023-07-20T08:43:45;6.13;;;2.22;;
70303;SDS011;57712;48.752;11.348;2023-07-20T08:46:13;5.25;;;2.05;;
70303;SDS011;57712;48.752;11.348;2023-07-20T08:48:41;5.83;;;1.93;;
70303;SDS011;57712;48.752;11.348;2023-07-20T08:51:08;7.45;;;1.90;;
70303;SDS011;57712;48.752;11.348;2023-07-20T08:53:37;6.55;;;2.15;;
70303;SDS011;57712;48.752;11.348;2023-07-20T08:56:04;6.25;;;1.80;;
70303;SDS011;57712;48.752;11.348;2023-07-20T08:58:31;8.35;;;3.17;;
70303;SDS011;57712;48.752;11.348;2023-07-20T09:01:01;6.53;;;1.97;;
70303;SDS011;57712;48.752;11.348;2023-07-20T09:03:28;5.53;;;2.45;;
70303;SDS011;57712;48.752;11.348;2023-07-20T09:05:55;5.20;;;1.83;;
70303;SDS011;57712;48.752;11.348;2023-07-20T09:08:22;4.55;;;2.22;;
70303;SDS011;57712;48.752;11.348;2023-07-20T09:10:48;5.82;;;2.30;;
70303;SDS011;57712;48.752;11.348;2023-07-20T09:13:15;6.10;;;2.47;;
70303;SDS011;57712;48.752;11.348;2023-07-20T09:15:46;6.43;;;2.05;;
70303;SDS011;57712;48.752;11.348;2023-07-20T09:18:23;5.43;;;2.10;;
70303;SDS011;57712;48.752;11.348;2023-07-20T09:20:50;5.95;;;2.25;;
70303;SDS011;57712;48.752;11.348;2023-07-20T09:23:17;5.32;;;2.13;;
70303;SDS011;57712;48.752;11.348;2023-07-20T09:25:45;6.30;;;2.07;;
70303;SDS011;57712;48.752;11.348;2023-07-20T09:28:17;6.28;;;2.78;;
70303;SDS011;57712;48.752;11.348;2023-07-20T09:30:44;6.03;;;2.10;;
70303;SDS011;57712;48.752;11.348;2023-07-20T09:33:18;6.25;;;2.20;;
70303;SDS011;57712;48.752;11.348;2023-07-20T09:35:50;5.72;;;2.08;;
70303;SDS011;57712;48.752;11.348;2023-07-20T09:38:21;5.67;;;2.00;;
70303;SDS011;57712;48.752;11.348;2023-07-20T09:40:50;5.85;;;1.90;;
70303;SDS011;57712;48.752;11.348;2023-07-20T09:43:21;5.75;;;2.45;;
70303;SDS011;57712;48.752;11.348;2023-07-20T09:45:51;5.07;;;1.73;;
70303;SDS011;57712;48.752;11.348;2023-07-20T09:48:24;5.55;;;1.80;;
70303;SDS011;57712;48.752;11.348;2023-07-20T09:50:55;6.17;;;2.07;;
70303;SDS011;57712;48.752;11.348;2023-07-20T09:53:23;6.25;;;2.22;;
70303;SDS011;57712;48.752;11.348;2023-07-20T09:55:51;5.60;;;2.10;;
70303;SDS011;57712;48.752;11.348;2023-07-20T09:58:19;5.05;;;2.00;;
70303;SDS011;57712;48.752;11.348;2023-07-20T10:00:46;5.40;;;2.15;;
70303;SDS011;57712;48.752;11.348;2023-07-20T10:03:20;7.37;;;1.63;;
70303;SDS011;57712;48.752;11.348;2023-07-20T10:05:56;5.85;;;1.67;;
70303;SDS011;57712;48.752;11.348;2023-07-20T10:08:27;8.07;;;2.08;;
70303;SDS011;57712;48.752;11.348;2023-07-20T10:10:59;5.18;;;1.80;;
70303;SDS011;57712;48.752;11.348;2023-07-20T10:13:29;5.28;;;1.70;;
70303;SDS011;57712;48.752;11.348;2023-07-20T10:16:15;6.40;;;1.80;;
70303;SDS011;57712;48.752;11.348;2023-07-20T10:21:45;5.20;;;1.58;;
70303;SDS011;57712;48.752;11.348;2023-07-20T10:24:20;5.03;;;1.52;;
70303;SDS011;57712;48.752;11.348;2023-07-20T10:26:48;3.90;;;1.50;;
70303;SDS011;57712;48.752;11.348;2023-07-20T10:29:15;5.23;;;1.30;;
70303;SDS011;57712;48.752;11.348;2023-07-20T10:31:43;5.40;;;1.85;;
70303;SDS011;57712;48.752;11.348;2023-07-20T10:34:11;4.10;;;1.65;;
70303;SDS011;57712;48.752;11.348;2023-07-20T10:36:45;4.47;;;1.33;;
70303;SDS011;57712;48.752;11.348;2023-07-20T10:39:22;4.38;;;1.40;;
70303;SDS011;57712;48.752;11.348;2023-07-20T10:41:53;4.10;;;1.17;;
70303;SDS011;57712;48.752;11.348;2023-07-20T10:44:38;5.53;;;1.52;;
70303;SDS011;57712;48.752;11.348;2023-07-20T10:47:09;4.40;;;1.48;;
70303;SDS011;57712;48.752;11.348;2023-07-20T10:50:00;4.05;;;1.35;;
70303;SDS011;57712;48.752;11.348;2023-07-20T10:52:36;4.38;;;2.00;;
70303;SDS011;57712;48.752;11.348;2023-07-20T10:55:10;3.93;;;1.30;;
70303;SDS011;57712;48.752;11.348;2023-07-20T10:57:40;4.50;;;1.23;;
70303;SDS011;57712;48.752;11.348;2023-07-20T11:00:07;4.78;;;1.58;;
70303;SDS011;57712;48.752;11.348;2023-07-20T11:02:48;5.13;;;1.02;;
70303;SDS011;57712;48.752;11.348;2023-07-20T11:05:31;4.90;;;1.65;;
70303;SDS011;57712;48.752;11.348;2023-07-20T11:07:58;4.40;;;1.30;;
70303;SDS011;57712;48.752;11.348;2023-07-20T11:10:25;5.55;;;1.55;;
70303;SDS011;57712;48.752;11.348;2023-07-20T11:18:25;4.93;;;1.58;;
70303;SDS011;57712;48.752;11.348;2023-07-20T11:20:52;4.60;;;1.80;;
70303;SDS011;57712;48.752;11.348;2023-07-20T11:23:20;4.50;;;1.70;;
70303;SDS011;57712;48.752;11.348;2023-07-20T11:25:48;9.40;;;1.33;;
70303;SDS011;57712;48.752;11.348;2023-07-20T11:28:15;4.13;;;1.08;;
70303;SDS011;57712;48.752;11.348;2023-07-20T11:30:42;5.15;;;1.67;;
70303;SDS011;57712;48.752;11.348;2023-07-20T11:33:09;5.23;;;1.50;;
70303;SDS011;57712;48.752;11.348;2023-07-20T11:35:36;8.43;;;1.38;;
70303;SDS011;57712;48.752;11.348;2023-07-20T11:38:09;5.00;;;1.20;;
70303;SDS011;57712;48.752;11.348;2023-07-20T11:40:39;4.45;;;1.27;;
70303;SDS011;57712;48.752;11.348;2023-07-20T11:43:09;3.97;;;1.38;;
70303;SDS011;57712;48.752;11.348;2023-07-20T11:45:43;5.73;;;1.50;;
70303;SDS011;57712;48.752;11.348;2023-07-20T11:48:17;6.85;;;1.40;;
70303;SDS011;57712;48.752;11.348;2023-07-20T11:50:44;4.30;;;1.63;;
70303;SDS011;57712;48.752;11.348;2023-07-20T11:53:11;3.90;;;1.60;;
70303;SDS011;57712;48.752;11.348;2023-07-20T11:55:38;5.25;;;1.23;;
70303;SDS011;57712;48.752;11.348;2023-07-20T11:58:08;7.90;;;1.50;;
70303;SDS011;57712;48.752;11.348;2023-07-20T12:00:36;4.90;;;1.40;;
70303;SDS011;57712;48.752;11.348;2023-07-20T12:03:05;4.85;;;1.33;;
70303;SDS011;57712;48.752;11.348;2023-07-20T12:05:38;4.75;;;1.48;;
70303;SDS011;57712;48.752;11.348;2023-07-20T12:08:25;3.95;;;1.25;;
70303;SDS011;57712;48.752;11.348;2023-07-20T12:10:52;4.23;;;1.60;;
70303;SDS011;57712;48.752;11.348;2023-07-20T12:13:18;4.82;;;1.50;;
70303;SDS011;57712;48.752;11.348;2023-07-20T12:15:45;5.47;;;2.03;;
70303;SDS011;57712;48.752;11.348;2023-07-20T12:18:12;4.03;;;1.67;;
70303;SDS011;57712;48.752;11.348;2023-07-20T12:20:38;4.03;;;1.90;;
70303;SDS011;57712;48.752;11.348;2023-07-20T12:23:09;4.53;;;1.37;;
70303;SDS011;57712;48.752;11.348;2023-07-20T12:28:08;4.10;;;2.05;;
70303;SDS011;57712;48.752;11.348;2023-07-20T12:30:39;4.28;;;1.50;;
70303;SDS011;57712;48.752;11.348;2023-07-20T12:33:07;4.38;;;1.42;;
70303;SDS011;57712;48.752;11.348;2023-07-20T12:35:34;3.50;;;1.40;;
70303;SDS011;57712;48.752;11.348;2023-07-20T12:38:01;4.85;;;1.20;;
70303;SDS011;57712;48.752;11.348;2023-07-20T12:40:28;4.53;;;1.55;;
70303;SDS011;57712;48.752;11.348;2023-07-20T12:42:54;4.32;;;1.40;;
70303;SDS011;57712;48.752;11.348;2023-07-20T12:45:21;4.55;;;1.60;;
70303;SDS011;57712;48.752;11.348;2023-07-20T12:47:48;4.13;;;1.73;;
70303;SDS011;57712;48.752;11.348;2023-07-20T12:50:15;4.88;;;1.60;;
70303;SDS011;57712;48.752;11.348;2023-07-20T12:52:42;4.47;;;1.63;;
70303;SDS011;57712;48.752;11.348;2023-07-20T12:55:10;4.45;;;1.88;;
70303;SDS011;57712;48.752;11.348;2023-07-20T12:57:37;5.55;;;2.40;;
70303;SDS011;57712;48.752;11.348;2023-07-20T13:00:06;4.43;;;1.93;;
70303;SDS011;57712;48.752;11.348;2023-07-20T13:02:37;5.35;;;1.77;;
70303;SDS011;57712;48.752;11.348;2023-07-20T13:05:04;4.25;;;2.08;;
70303;SDS011;57712;48.752;11.348;2023-07-20T13:07:32;4.47;;;1.40;;
70303;SDS011;57712;48.752;11.348;2023-07-20T13:10:04;5.18;;;2.00;;
70303;SDS011;57712;48.752;11.348;2023-07-20T13:12:32;4.03;;;1.20;;
70303;SDS011;57712;48.752;11.348;2023-07-20T13:15:04;4.45;;;1.20;;
70303;SDS011;57712;48.752;11.348;2023-07-20T13:17:36;7.03;;;1.50;;
70303;SDS011;57712;48.752;11.348;2023-07-20T13:20:06;3.67;;;1.17;;
70303;SDS011;57712;48.752;11.348;2023-07-20T13:22:37;4.85;;;1.52;;
70303;SDS011;57712;48.752;11.348;2023-07-20T13:25:06;4.10;;;1.80;;
70303;SDS011;57712;48.752;11.348;2023-07-20T13:27:34;3.70;;;1.30;;
70303;SDS011;57712;48.752;11.348;2023-07-20T13:30:03;4.32;;;1.73;;
70303;SDS011;57712;48.752;11.348;2023-07-20T13:32:36;3.92;;;1.35;;
70303;SDS011;57712;48.752;11.348;2023-07-20T13:35:03;3.78;;;1.48;;
70303;SDS011;57712;48.752;11.348;2023-07-20T13:37:31;5.07;;;1.60;;
70303;SDS011;57712;48.752;11.348;2023-07-20T13:39:57;4.72;;;1.27;;
70303;SDS011;57712;48.752;11.348;2023-07-20T13:42:24;5.20;;;1.50;;
70303;SDS011;57712;48.752;11.348;2023-07-20T13:44:51;4.28;;;1.42;;
70303;SDS011;57712;48.752;11.348;2023-07-20T13:47:18;5.30;;;1.63;;
70303;SDS011;57712;48.752;11.348;2023-07-20T13:49:47;5.13;;;1.13;;
70303;SDS011;57712;48.752;11.348;2023-07-20T13:52:15;4.00;;;1.60;;
70303;SDS011;57712;48.752;11.348;2023-07-20T13:54:45;4.40;;;1.55;;
70303;SDS011;57712;48.752;11.348;2023-07-20T13:57:16;7.90;;;1.80;;
70303;SDS011;57712;48.752;11.348;2023-07-20T13:59:43;4.65;;;1.63;;
70303;SDS011;57712;48.752;11.348;2023-07-20T14:02:11;4.60;;;1.80;;
70303;SDS011;57712;48.752;11.348;2023-07-20T14:04:43;6.43;;;1.58;;
70303;SDS011;57712;48.752;11.348;2023-07-20T14:07:10;5.38;;;1.52;;
70303;SDS011;57712;48.752;11.348;2023-07-20T14:09:37;4.38;;;1.50;;
70303;SDS011;57712;48.752;11.348;2023-07-20T14:12:24;5.35;;;1.83;;
70303;SDS011;57712;48.752;11.348;2023-07-20T14:14:51;5.10;;;1.50;;
70303;SDS011;57712;48.752;11.348;2023-07-20T14:17:18;4.03;;;1.30;;
70303;SDS011;57712;48.752;11.348;2023-07-20T14:19:44;4.53;;;1.70;;
70303;SDS011;57712;48.752;11.348;2023-07-20T14:22:11;4.55;;;1.60;;
70303;SDS011;57712;48.752;11.348;2023-07-20T14:24:38;4.45;;;1.35;;
70303;SDS011;57712;48.752;11.348;2023-07-20T14:27:05;5.67;;;1.83;;
70303;SDS011;57712;48.752;11.348;2023-07-20T14:29:32;6.22;;;1.70;;
70303;SDS011;57712;48.752;11.348;2023-07-20T14:31:59;5.38;;;1.23;;
70303;SDS011;57712;48.752;11.348;2023-07-20T14:34:26;5.05;;;1.95;;
70303;SDS011;57712;48.752;11.348;2023-07-20T14:36:53;4.57;;;2.13;;
70303;SDS011;57712;48.752;11.348;2023-07-20T14:39:20;5.43;;;1.70;;
70303;SDS011;57712;48.752;11.348;2023-07-20T14:41:47;4.68;;;1.70;;
70303;SDS011;57712;48.752;11.348;2023-07-20T14:44:15;5.47;;;1.80;;
70303;SDS011;57712;48.752;11.348;2023-07-20T14:46:42;4.45;;;1.30;;
70303;SDS011;57712;48.752;11.348;2023-07-20T14:49:25;4.45;;;1.38;;
70303;SDS011;57712;48.752;11.348;2023-07-20T14:51:52;5.03;;;1.50;;
70303;SDS011;57712;48.752;11.348;2023-07-20T14:54:19;4.28;;;1.58;;
70303;SDS011;57712;48.752;11.348;2023-07-20T14:56:49;5.20;;;1.35;;
70303;SDS011;57712;48.752;11.348;2023-07-20T14:59:19;7.00;;;1.40;;
70303;SDS011;57712;48.752;11.348;2023-07-20T15:01:46;4.82;;;1.55;;